createdAt,value
2022-10-23T00:01:54.698Z,15.08
2022-10-23T00:04:25.645Z,15.04
2022-10-23T00:06:55.196Z,15.04
2022-10-23T00:09:26.802Z,15.04
2022-10-23T00:11:56.152Z,14.99
2022-10-23T00:14:26.956Z,14.96
2022-10-23T00:16:55.903Z,14.95
2022-10-23T00:19:25.230Z,14.95
2022-10-23T00:21:54.447Z,14.94
2022-10-23T00:24:24.860Z,14.94
2022-10-23T00:26:53.911Z,14.92
2022-10-23T00:29:25.047Z,14.92
2022-10-23T00:31:54.141Z,14.90
2022-10-23T00:34:23.184Z,14.88
2022-10-23T00:36:52.330Z,14.89
2022-10-23T00:39:21.542Z,14.91
2022-10-23T00:41:52.184Z,14.95
2022-10-23T00:44:57.663Z,14.98
2022-10-23T00:47:26.659Z,14.96
2022-10-23T00:49:55.509Z,14.96
2022-10-23T00:52:24.637Z,14.94
2022-10-23T00:54:53.417Z,14.94
2022-10-23T00:57:24.590Z,14.91
2022-10-23T00:59:53.353Z,14.91
2022-10-23T01:02:22.788Z,14.89
2022-10-23T01:04:51.771Z,14.87
2022-10-23T01:07:29.489Z,14.86
2022-10-23T01:10:06.198Z,14.83
2022-10-23T01:12:46.201Z,14.86
2022-10-23T01:15:21.615Z,14.85
2022-10-23T01:17:57.398Z,14.85
2022-10-23T01:20:40.021Z,14.85
2022-10-23T01:23:15.494Z,14.90
2022-10-23T01:26:04.436Z,14.89
2022-10-23T01:28:38.470Z,14.86
2022-10-23T01:31:11.226Z,14.86
2022-10-23T01:33:43.302Z,14.84
2022-10-23T01:36:16.302Z,14.86
2022-10-23T01:38:49.817Z,14.84
2022-10-23T01:41:22.932Z,14.85
2022-10-23T01:43:58.450Z,14.86
2022-10-23T01:46:29.252Z,14.87
2022-10-23T01:48:59.441Z,14.88
2022-10-23T01:51:30.907Z,14.87
2022-10-23T01:54:02.810Z,14.87
2022-10-23T01:56:35.361Z,14.87
2022-10-23T01:59:06.964Z,14.89
2022-10-23T02:01:39.154Z,14.90
2022-10-23T02:04:14.372Z,14.89
2022-10-23T02:06:43.451Z,14.86
2022-10-23T02:09:12.519Z,14.83
2022-10-23T02:11:47.908Z,14.83
2022-10-23T02:14:25.303Z,14.80
2022-10-23T02:16:56.614Z,14.78
2022-10-23T02:19:33.275Z,14.78
2022-10-23T02:22:08.520Z,14.80
2022-10-23T02:24:41.269Z,14.80
2022-10-23T02:27:13.834Z,14.81
2022-10-23T02:29:48.767Z,14.82
2022-10-23T02:32:19.765Z,14.81
2022-10-23T02:34:48.949Z,14.80
2022-10-23T02:37:18.624Z,14.80
2022-10-23T02:39:48.845Z,14.77
2022-10-23T02:42:24.753Z,14.77
2022-10-23T02:45:05.631Z,14.75
2022-10-23T02:47:48.825Z,14.72
2022-10-23T02:50:26.249Z,14.69
2022-10-23T02:53:04.406Z,14.70
2022-10-23T02:55:45.102Z,14.69
2022-10-23T02:58:21.126Z,14.66
2022-10-23T03:00:56.466Z,14.64
2022-10-23T03:03:31.946Z,14.63
2022-10-23T03:06:01.070Z,14.60
2022-10-23T03:08:30.148Z,14.59
2022-10-23T03:10:59.260Z,14.56
2022-10-23T03:13:28.051Z,14.53
2022-10-23T03:15:58.375Z,14.52
2022-10-23T03:18:27.419Z,14.52
2022-10-23T03:20:56.249Z,14.54
2022-10-23T03:23:25.355Z,14.54
2022-10-23T03:25:56.603Z,14.53
2022-10-23T03:28:25.645Z,14.52
2022-10-23T03:30:54.413Z,14.53
2022-10-23T03:33:24.864Z,14.50
2022-10-23T03:35:54.029Z,14.49
2022-10-23T03:38:23.333Z,14.50
2022-10-23T03:40:52.701Z,14.52
2022-10-23T03:43:22.020Z,14.52
2022-10-23T03:45:51.241Z,14.54
2022-10-23T03:48:20.296Z,14.54
2022-10-23T03:50:50.847Z,14.56
2022-10-23T03:53:19.733Z,14.55
2022-10-23T03:55:48.602Z,14.55
2022-10-23T03:58:17.421Z,14.58
2022-10-23T04:00:46.489Z,14.58
2022-10-23T04:03:15.327Z,14.57
2022-10-23T04:05:44.980Z,14.55
2022-10-23T04:08:20.092Z,14.54
2022-10-23T04:10:49.515Z,14.54
2022-10-23T04:13:18.355Z,14.54
2022-10-23T04:15:51.135Z,14.55
2022-10-23T04:18:20.065Z,14.53
2022-10-23T04:20:50.214Z,14.51
2022-10-23T04:23:20.839Z,14.47
2022-10-23T04:25:49.743Z,14.44
2022-10-23T04:33:54.685Z,14.39
2022-10-23T04:37:00.450Z,14.39
2022-10-23T04:40:15.036Z,14.36
2022-10-23T04:43:21.339Z,14.34
2022-10-23T04:48:50.242Z,14.33
2022-10-23T04:51:45.502Z,14.33
2022-10-23T04:54:33.116Z,14.33
2022-10-23T04:57:18.496Z,14.33
2022-10-23T05:00:16.345Z,14.31
2022-10-23T05:08:33.744Z,14.27
2022-10-23T05:11:13.839Z,14.25
2022-10-23T05:13:54.314Z,14.18
2022-10-23T05:16:53.523Z,14.21
2022-10-23T05:19:35.607Z,14.18
2022-10-23T05:22:37.768Z,14.20
2022-10-23T05:25:31.913Z,14.22
2022-10-23T05:28:33.857Z,14.25
2022-10-23T05:31:23.351Z,14.22
2022-10-23T05:37:03.275Z,14.20
2022-10-23T05:39:47.995Z,14.16
2022-10-23T05:42:33.839Z,14.14
2022-10-23T05:45:23.340Z,14.09
2022-10-23T05:48:33.409Z,14.10
2022-10-23T05:51:43.325Z,14.10
2022-10-23T05:54:31.607Z,14.09
2022-10-23T05:57:30.648Z,14.10
2022-10-23T06:00:35.769Z,14.09
2022-10-23T06:03:31.538Z,14.07
2022-10-23T06:06:22.522Z,14.05
2022-10-23T06:09:06.929Z,14.02
2022-10-23T06:17:19.816Z,14.04
2022-10-23T06:19:48.400Z,14.03
2022-10-23T06:24:53.225Z,14.04
2022-10-23T06:27:25.471Z,14.05
2022-10-23T06:30:00.997Z,14.04
2022-10-23T06:32:36.293Z,14.04
2022-10-23T06:35:10.988Z,14.06
2022-10-23T06:37:50.214Z,14.08
2022-10-23T06:40:34.534Z,14.11
2022-10-23T06:43:06.014Z,14.16
2022-10-23T06:45:36.485Z,14.17
2022-10-23T06:48:09.154Z,14.17
2022-10-23T06:50:41.463Z,14.16
2022-10-23T06:53:12.466Z,14.17
2022-10-23T06:55:44.240Z,14.20
2022-10-23T06:58:12.259Z,14.23
2022-10-23T07:00:40.843Z,14.24
2022-10-23T07:03:10.907Z,14.27
2022-10-23T07:05:47.784Z,14.28
2022-10-23T07:08:27.751Z,14.30
2022-10-23T07:10:58.185Z,14.30
2022-10-23T07:13:29.460Z,14.30
2022-10-23T07:16:00.599Z,14.34
2022-10-23T07:21:07.477Z,14.36
2022-10-23T07:23:37.499Z,14.40
2022-10-23T07:26:11.815Z,14.39
2022-10-23T07:28:44.138Z,14.40
2022-10-23T07:31:13.446Z,14.39
2022-10-23T07:33:41.843Z,14.39
2022-10-23T07:36:14.493Z,14.40
2022-10-23T07:38:48.259Z,14.42
2022-10-23T07:41:16.804Z,14.46
2022-10-23T07:43:55.194Z,14.51
2022-10-23T07:46:30.894Z,14.55
2022-10-23T07:49:16.746Z,14.62
2022-10-23T07:51:51.636Z,14.73
2022-10-23T07:54:27.722Z,14.83
2022-10-23T08:02:48.499Z,14.98
2022-10-23T08:05:26.656Z,14.98
2022-10-23T08:08:03.812Z,15.01
2022-10-23T08:10:50.775Z,15.00
2022-10-23T08:13:29.360Z,15.05
2022-10-23T08:16:09.483Z,15.10
2022-10-23T08:18:48.288Z,15.18
2022-10-23T08:21:41.432Z,15.28
2022-10-23T08:24:26.723Z,15.36
2022-10-23T08:27:11.273Z,15.41
2022-10-23T08:29:43.603Z,15.48
2022-10-23T08:32:24.268Z,15.55
2022-10-23T08:48:17.872Z,16.20
2022-10-23T08:50:51.145Z,16.28
2022-10-23T08:53:32.287Z,16.36
2022-10-23T08:56:04.068Z,16.46
2022-10-23T08:58:40.505Z,16.59
2022-10-23T09:01:33.977Z,16.81
2022-10-23T09:04:04.470Z,17.06
2022-10-23T09:06:38.094Z,17.28
2022-10-23T09:09:36.210Z,17.52
2022-10-23T09:27:38.825Z,18.06
2022-10-23T10:51:09.652Z,23.42
2022-10-23T10:53:50.386Z,23.61
2022-10-23T10:56:21.630Z,23.80
2022-10-23T10:58:53.800Z,23.97
2022-10-23T11:01:26.628Z,24.15
2022-10-23T11:38:59.090Z,27.00
2022-10-23T11:41:29.529Z,26.84
2022-10-23T11:44:01.672Z,26.70
2022-10-23T11:46:35.336Z,26.62
2022-10-23T11:49:06.242Z,26.58
2022-10-23T11:51:39.481Z,26.80
2022-10-23T11:54:27.193Z,27.28
2022-10-23T11:57:11.620Z,27.28
2022-10-23T11:59:52.592Z,26.88
2022-10-23T12:02:31.835Z,26.41
2022-10-23T12:05:03.851Z,26.03
2022-10-23T12:07:35.392Z,25.72
2022-10-23T12:10:07.929Z,25.40
2022-10-23T12:12:40.781Z,25.10
2022-10-23T12:15:19.756Z,24.76
2022-10-23T12:17:49.290Z,24.47
2022-10-23T12:20:26.784Z,24.22
2022-10-23T12:23:16.728Z,23.97
2022-10-23T12:26:00.245Z,23.67
2022-10-23T12:28:37.299Z,23.45
2022-10-23T12:31:21.546Z,23.23
2022-10-23T12:34:00.604Z,23.07
2022-10-23T12:36:45.294Z,22.86
2022-10-23T12:39:27.086Z,22.71
2022-10-23T12:41:56.627Z,22.54
2022-10-23T12:44:25.299Z,22.36
2022-10-23T12:46:57.379Z,22.23
2022-10-23T12:49:26.507Z,22.11
2022-10-23T12:51:58.248Z,22.04
2022-10-23T12:54:25.926Z,22.02
2022-10-23T12:56:54.266Z,21.99
2022-10-23T12:59:27.271Z,21.94
2022-10-23T13:01:56.088Z,21.86
2022-10-23T13:04:28.929Z,21.75
2022-10-23T13:06:58.174Z,21.72
2022-10-23T13:09:32.343Z,21.71
2022-10-23T13:12:04.273Z,21.74
2022-10-23T13:14:44.571Z,21.75
2022-10-23T13:17:17.629Z,21.71
2022-10-23T13:19:49.226Z,21.66
2022-10-23T13:22:21.714Z,21.62
2022-10-23T13:24:50.470Z,21.63
2022-10-23T13:27:36.029Z,21.59
2022-10-23T13:30:09.997Z,21.57
2022-10-23T13:32:41.537Z,21.55
2022-10-23T13:35:25.617Z,21.52
2022-10-23T13:37:56.188Z,21.50
2022-10-23T13:40:27.215Z,21.45
2022-10-23T13:42:58.613Z,21.39
2022-10-23T13:45:34.145Z,21.38
2022-10-23T13:48:03.704Z,21.39
2022-10-23T13:50:38.654Z,21.38
2022-10-23T13:53:08.811Z,21.33
2022-10-23T13:55:41.093Z,21.31
2022-10-23T13:58:11.591Z,21.34
2022-10-23T14:00:44.946Z,21.27
2022-10-23T14:03:16.472Z,21.18
2022-10-23T14:05:47.602Z,21.09
2022-10-23T14:08:16.703Z,21.00
2022-10-23T14:10:47.654Z,20.94
2022-10-23T14:13:17.133Z,20.88
2022-10-23T14:15:55.276Z,20.80
2022-10-23T14:18:25.027Z,20.71
2022-10-23T14:20:54.573Z,20.66
2022-10-23T14:23:24.434Z,20.57
2022-10-23T14:25:59.761Z,20.55
2022-10-23T14:28:28.579Z,20.52
2022-10-23T14:30:59.245Z,20.48
2022-10-23T14:33:30.571Z,20.46
2022-10-23T14:35:59.873Z,20.42
2022-10-23T14:38:32.382Z,20.39
2022-10-23T14:41:01.540Z,20.35
2022-10-23T14:43:33.781Z,20.28
2022-10-23T14:46:13.450Z,20.22
2022-10-23T14:48:47.174Z,20.17
2022-10-23T14:51:24.840Z,20.13
2022-10-23T14:54:03.550Z,20.08
2022-10-23T14:56:44.167Z,20.02
2022-10-23T14:59:16.165Z,19.96
2022-10-23T15:04:26.149Z,19.83
2022-10-23T15:06:55.380Z,19.75
2022-10-23T15:09:26.713Z,19.71
2022-10-23T15:11:58.022Z,19.69
2022-10-23T15:14:28.367Z,19.64
2022-10-23T15:17:02.002Z,19.61
2022-10-23T15:19:47.664Z,19.54
2022-10-23T15:22:20.849Z,19.51
2022-10-23T15:24:57.536Z,19.47
2022-10-23T15:27:27.542Z,19.42
2022-10-23T15:30:00.137Z,19.35
2022-10-23T15:32:35.378Z,19.30
2022-10-23T15:35:08.908Z,19.25
2022-10-23T15:37:37.387Z,19.23
2022-10-23T15:40:10.765Z,19.20
2022-10-23T15:42:41.318Z,19.16
2022-10-23T15:45:20.666Z,19.14
2022-10-23T15:47:52.862Z,19.09
2022-10-23T15:50:22.671Z,19.03
2022-10-23T15:52:53.693Z,18.98
2022-10-23T15:55:22.907Z,18.91
2022-10-23T15:57:53.413Z,18.87
2022-10-23T16:00:37.023Z,18.83
2022-10-23T16:03:08.282Z,18.77
2022-10-23T16:05:38.165Z,18.70
2022-10-23T16:08:08.090Z,18.65
2022-10-23T16:10:42.826Z,18.61
2022-10-23T16:13:13.852Z,18.56
2022-10-23T16:15:44.387Z,18.49
2022-10-23T16:18:16.584Z,18.45
2022-10-23T16:20:45.883Z,18.41
2022-10-23T16:23:16.291Z,18.36
2022-10-23T16:25:47.276Z,18.31
2022-10-23T16:28:16.638Z,18.25
2022-10-23T16:30:44.253Z,18.18
2022-10-23T16:33:13.702Z,18.10
2022-10-23T16:35:41.179Z,18.07
2022-10-23T16:38:08.706Z,18.02
2022-10-23T16:40:36.284Z,17.98
2022-10-23T16:43:04.036Z,17.92
2022-10-23T16:45:34.391Z,17.90
2022-10-23T16:48:04.785Z,17.88
2022-10-23T16:50:33.689Z,17.88
2022-10-23T16:53:01.235Z,17.88
2022-10-23T16:55:28.847Z,17.89
2022-10-23T16:57:57.633Z,17.88
2022-10-23T17:00:29.177Z,17.88
2022-10-23T17:02:56.689Z,17.87
2022-10-23T17:05:24.191Z,17.89
2022-10-23T17:07:53.047Z,17.91
2022-10-23T17:10:20.658Z,17.90
2022-10-23T17:12:49.907Z,17.91
2022-10-23T17:15:17.769Z,17.93
2022-10-23T17:17:45.361Z,17.95
2022-10-23T17:20:13.432Z,17.93
2022-10-23T17:22:41.027Z,17.95
2022-10-23T17:25:11.170Z,17.96
2022-10-23T17:27:38.668Z,17.93
2022-10-23T17:30:10.383Z,17.90
2022-10-23T17:32:39.966Z,17.91
2022-10-23T17:35:08.563Z,17.91
2022-10-23T17:37:36.082Z,17.91
2022-10-23T17:40:05.003Z,17.92
2022-10-23T17:42:33.972Z,17.94
2022-10-23T17:45:01.492Z,17.94
2022-10-23T17:47:28.988Z,17.93
2022-10-23T17:49:56.638Z,17.91
2022-10-23T17:52:24.179Z,17.88
2022-10-23T17:54:53.283Z,17.84
2022-10-23T17:57:20.778Z,17.84
2022-10-23T17:59:49.609Z,17.80
2022-10-23T18:02:17.248Z,17.77
2022-10-23T18:04:45.004Z,17.74
2022-10-23T18:07:13.041Z,17.73
2022-10-23T18:09:40.853Z,17.74
2022-10-23T18:12:08.574Z,17.73
2022-10-23T18:14:37.538Z,17.71
2022-10-23T18:17:06.658Z,17.69
2022-10-23T18:19:34.257Z,17.69
2022-10-23T18:22:01.785Z,17.68
2022-10-23T18:24:30.907Z,17.67
2022-10-23T18:26:58.414Z,17.67
2022-10-23T18:29:25.905Z,17.69
2022-10-23T18:31:53.372Z,17.69
2022-10-23T18:34:24.792Z,17.71
2022-10-23T18:36:54.048Z,17.74
2022-10-23T18:39:24.072Z,17.77
2022-10-23T18:41:53.822Z,17.80
2022-10-23T18:44:23.446Z,17.81
2022-10-23T18:46:51.252Z,17.82
2022-10-23T18:49:20.288Z,17.83
2022-10-23T18:51:49.962Z,17.82
2022-10-23T18:54:24.397Z,17.81
2022-10-23T18:56:51.965Z,17.82
2022-10-23T18:59:21.459Z,17.85
2022-10-23T19:01:49.770Z,17.90
2022-10-23T19:04:18.418Z,17.93
2022-10-23T19:06:46.621Z,17.97
2022-10-23T19:09:15.801Z,18.02
2022-10-23T19:11:45.195Z,18.05
2022-10-23T19:14:13.046Z,18.08
2022-10-23T19:16:45.427Z,18.10
2022-10-23T19:19:16.347Z,18.11
2022-10-23T19:21:44.576Z,18.11
2022-10-23T19:24:17.179Z,18.14
2022-10-23T19:26:45.252Z,18.15
2022-10-23T19:29:16.291Z,18.18
2022-10-23T19:31:48.829Z,18.20
2022-10-23T19:34:19.669Z,18.23
2022-10-23T19:36:47.445Z,18.27
2022-10-23T19:39:17.151Z,18.30
2022-10-23T19:41:44.976Z,18.33
2022-10-23T19:44:13.871Z,18.35
2022-10-23T19:46:41.410Z,18.37
2022-10-23T19:49:09.193Z,18.38
2022-10-23T19:51:37.139Z,18.41
2022-10-23T19:54:05.369Z,18.41
2022-10-23T19:56:34.226Z,18.42
2022-10-23T19:59:01.759Z,18.41
2022-10-23T20:01:29.439Z,18.40
2022-10-23T20:03:57.228Z,18.41
2022-10-23T20:06:26.921Z,18.39
2022-10-23T20:08:55.462Z,18.40
2022-10-23T20:11:25.463Z,18.42
2022-10-23T20:13:54.749Z,18.43
2022-10-23T20:16:24.556Z,18.48
2022-10-23T20:18:52.513Z,18.51
2022-10-23T20:21:20.839Z,18.59
2022-10-23T20:23:48.775Z,18.65
2022-10-23T20:26:18.788Z,18.76
2022-10-23T20:28:48.442Z,18.82
2022-10-23T20:31:18.230Z,18.86
2022-10-23T20:33:45.972Z,18.89
2022-10-23T20:36:23.738Z,18.94
2022-10-23T20:38:51.385Z,18.97
2022-10-23T20:41:18.983Z,19.01
2022-10-23T20:43:46.597Z,19.03
2022-10-23T20:46:14.272Z,19.04
2022-10-23T20:48:44.959Z,19.06
2022-10-23T20:51:15.204Z,19.08
2022-10-23T20:53:44.427Z,19.09
2022-10-23T20:56:15.034Z,19.10
2022-10-23T20:58:42.834Z,19.11
2022-10-23T21:01:12.717Z,19.12
2022-10-23T21:03:40.584Z,19.12
2022-10-23T21:06:12.256Z,19.12
2022-10-23T21:08:40.207Z,19.11
2022-10-23T21:11:08.919Z,19.12
2022-10-23T21:13:36.508Z,19.12
2022-10-23T21:16:13.010Z,19.13
2022-10-23T21:18:45.914Z,19.13
2022-10-23T21:21:19.168Z,19.13
2022-10-23T21:23:47.879Z,19.14
2022-10-23T21:26:20.125Z,19.13
2022-10-23T21:28:56.325Z,19.11
2022-10-23T21:31:37.068Z,19.11
2022-10-23T21:34:05.450Z,19.09
2022-10-23T21:36:43.772Z,19.07
2022-10-23T21:39:22.225Z,19.03
2022-10-23T21:41:49.798Z,19.01
2022-10-23T21:44:17.352Z,18.99
2022-10-23T21:46:45.677Z,18.96
2022-10-23T21:49:13.213Z,18.93
2022-10-23T21:51:42.121Z,18.90
2022-10-23T21:54:13.247Z,18.89
2022-10-23T21:56:44.839Z,18.84
2022-10-23T21:59:13.771Z,18.77
2022-10-23T22:01:43.017Z,18.73
2022-10-23T22:04:11.210Z,18.70
2022-10-23T22:06:39.363Z,18.67
2022-10-23T22:09:09.584Z,18.65
2022-10-23T22:11:37.149Z,18.63
2022-10-23T22:14:04.827Z,18.62
2022-10-23T22:16:32.570Z,18.60
2022-10-23T22:19:00.094Z,18.58
2022-10-23T22:21:30.389Z,18.53
2022-10-23T22:24:00.036Z,18.48
2022-10-23T22:26:30.804Z,18.42
2022-10-23T22:29:00.091Z,18.41
2022-10-23T22:31:32.092Z,18.37
2022-10-23T22:34:13.041Z,18.33
2022-10-23T22:36:51.878Z,18.29
2022-10-23T22:39:20.658Z,18.27
2022-10-23T22:41:50.672Z,18.23
2022-10-23T22:44:20.291Z,18.18
2022-10-23T22:50:15.739Z,18.08
2022-10-23T22:55:57.555Z,18.02
2022-10-23T23:06:03.379Z,17.92
2022-10-23T23:08:54.853Z,17.90
2022-10-23T23:11:31.356Z,17.85
2022-10-23T23:14:28.498Z,17.80
2022-10-23T23:17:02.845Z,17.75
2022-10-23T23:19:59.577Z,17.73
2022-10-23T23:25:25.053Z,17.62
2022-10-23T23:31:47.221Z,17.56
2022-10-23T23:34:14.926Z,17.55
2022-10-23T23:36:42.704Z,17.55
2022-10-23T23:39:11.849Z,17.50
2022-10-23T23:41:40.986Z,17.47
2022-10-23T23:44:09.227Z,17.44
2022-10-23T23:46:37.759Z,17.42
2022-10-23T23:49:07.578Z,17.38
2022-10-23T23:51:36.878Z,17.36
2022-10-23T23:54:07.994Z,17.33
2022-10-23T23:56:51.299Z,17.30
2022-10-23T23:59:22.251Z,17.27
